createdAt,value
2023-04-23T00:00:36.682Z,82.59
2023-04-23T00:03:12.991Z,83.27
2023-04-23T00:05:42.692Z,83.83
2023-04-23T00:08:12.882Z,82.79
2023-04-23T00:10:42.027Z,82.83
2023-04-23T00:13:11.196Z,84.16
2023-04-23T00:15:40.441Z,85.89
2023-04-23T00:18:10.275Z,85.61
2023-04-23T00:20:38.726Z,85.72
2023-04-23T00:23:07.200Z,84.95
2023-04-23T00:25:35.656Z,84.94
2023-04-23T00:28:04.207Z,86.19
2023-04-23T00:30:32.693Z,85.13
2023-04-23T00:33:01.509Z,85.76
2023-04-23T00:35:31.381Z,87.28
2023-04-23T00:37:59.804Z,85.87
2023-04-23T00:40:28.256Z,85.84
2023-04-23T00:42:59.059Z,87.07
2023-04-23T00:45:27.567Z,86.41
2023-04-23T00:47:57.678Z,85.62
2023-04-23T00:50:26.355Z,85.80
2023-04-23T00:52:56.216Z,86.80
2023-04-23T00:55:24.928Z,86.45
2023-04-23T00:57:54.197Z,85.07
2023-04-23T01:00:23.098Z,85.71
2023-04-23T01:02:53.234Z,86.84
2023-04-23T01:05:22.626Z,86.07
2023-04-23T01:07:51.293Z,85.37
2023-04-23T01:10:21.643Z,86.73
2023-04-23T01:12:50.596Z,86.31
2023-04-23T01:15:19.064Z,86.38
2023-04-23T01:17:47.788Z,86.39
2023-04-23T01:20:16.490Z,87.20
2023-04-23T01:22:46.394Z,86.71
2023-04-23T01:25:14.995Z,86.32
2023-04-23T01:27:43.608Z,85.14
2023-04-23T01:30:13.381Z,85.56
2023-04-23T01:32:43.777Z,84.95
2023-04-23T01:35:13.300Z,85.42
2023-04-23T01:37:42.515Z,85.75
2023-04-23T01:40:13.213Z,85.64
2023-04-23T01:42:42.264Z,85.84
2023-04-23T01:45:12.060Z,85.89
2023-04-23T01:47:41.174Z,85.53
2023-04-23T01:50:10.771Z,86.12
2023-04-23T01:52:40.438Z,84.92
2023-04-23T01:55:11.179Z,85.26
2023-04-23T01:57:39.662Z,85.56
2023-04-23T02:00:11.550Z,85.57
2023-04-23T02:02:42.763Z,86.55
2023-04-23T02:05:14.711Z,85.72
2023-04-23T02:07:43.975Z,86.18
2023-04-23T02:10:14.659Z,85.58
2023-04-23T02:12:43.485Z,85.54
2023-04-23T02:15:12.962Z,85.35
2023-04-23T02:17:41.848Z,85.90
2023-04-23T02:20:11.886Z,85.73
2023-04-23T02:22:42.630Z,85.66
2023-04-23T02:25:12.113Z,84.97
2023-04-23T02:27:41.909Z,84.17
2023-04-23T02:30:11.612Z,84.44
2023-04-23T02:32:41.871Z,84.56
2023-04-23T02:35:11.287Z,85.76
2023-04-23T02:37:39.784Z,84.51
2023-04-23T02:40:10.381Z,85.41
2023-04-23T02:42:39.106Z,85.10
2023-04-23T02:45:11.415Z,84.56
2023-04-23T02:47:40.417Z,84.85
2023-04-23T02:50:10.076Z,84.46
2023-04-23T02:52:38.631Z,85.26
2023-04-23T02:55:09.571Z,84.74
2023-04-23T02:57:38.771Z,84.40
2023-04-23T03:00:12.408Z,84.36
2023-04-23T03:02:41.038Z,84.67
2023-04-23T03:05:10.621Z,85.03
2023-04-23T03:07:39.050Z,85.12
2023-04-23T03:10:09.070Z,84.85
2023-04-23T03:12:37.627Z,84.09
2023-04-23T03:15:07.457Z,85.01
2023-04-23T03:17:38.655Z,84.46
2023-04-23T03:20:11.626Z,85.71
2023-04-23T03:22:40.173Z,85.75
2023-04-23T03:25:09.822Z,85.81
2023-04-23T03:27:40.300Z,85.54
2023-04-23T03:30:10.589Z,86.00
2023-04-23T03:32:40.536Z,86.64
2023-04-23T03:35:10.305Z,86.03
2023-04-23T03:37:38.777Z,85.57
2023-04-23T03:40:09.364Z,85.66
2023-04-23T03:42:38.046Z,85.40
2023-04-23T03:45:08.286Z,85.47
2023-04-23T03:47:36.933Z,84.92
2023-04-23T03:50:09.164Z,85.52
2023-04-23T03:52:37.852Z,85.48
2023-04-23T03:55:07.405Z,86.22
2023-04-23T03:57:36.011Z,85.69
2023-04-23T04:00:08.323Z,86.96
2023-04-23T04:02:36.942Z,87.15
2023-04-23T04:05:09.798Z,86.65
2023-04-23T04:07:38.578Z,87.32
2023-04-23T04:10:08.909Z,87.37
2023-04-23T04:12:37.427Z,86.99
2023-04-23T04:15:07.155Z,87.46
2023-04-23T04:17:35.826Z,86.76
2023-04-23T04:20:04.393Z,86.07
2023-04-23T04:22:34.497Z,86.46
2023-04-23T04:25:03.217Z,86.12
2023-04-23T04:27:33.736Z,86.28
2023-04-23T04:30:04.704Z,86.93
2023-04-23T04:32:33.862Z,87.36
2023-04-23T04:35:02.728Z,86.93
2023-04-23T04:37:32.117Z,86.02
2023-04-23T04:40:02.715Z,85.76
2023-04-23T04:42:31.193Z,85.06
2023-04-23T04:45:00.872Z,86.04
2023-04-23T04:47:29.652Z,86.18
2023-04-23T04:49:58.199Z,86.12
2023-04-23T04:52:26.699Z,85.81
2023-04-23T04:54:55.145Z,85.38
2023-04-23T04:57:25.000Z,85.71
2023-04-23T04:59:54.039Z,87.25
2023-04-23T05:02:23.444Z,86.39
2023-04-23T05:04:52.488Z,87.11
2023-04-23T05:07:20.995Z,85.70
2023-04-23T05:09:49.442Z,85.98
2023-04-23T05:12:17.909Z,84.79
2023-04-23T05:14:47.725Z,85.95
2023-04-23T05:17:16.156Z,86.85
2023-04-23T05:19:44.591Z,85.07
2023-04-23T05:22:13.332Z,84.36
2023-04-23T05:24:42.083Z,84.76
2023-04-23T05:27:11.030Z,85.59
2023-04-23T05:29:39.454Z,84.65
2023-04-23T05:32:09.377Z,84.15
2023-04-23T05:34:37.868Z,83.92
2023-04-23T05:37:06.453Z,83.91
2023-04-23T05:39:34.904Z,84.89
2023-04-23T05:42:03.841Z,85.17
2023-04-23T05:44:32.308Z,84.98
2023-04-23T05:47:01.269Z,85.38
2023-04-23T05:49:31.121Z,84.41
2023-04-23T05:51:59.725Z,85.08
2023-04-23T05:54:28.167Z,84.82
2023-04-23T05:56:56.962Z,85.07
2023-04-23T05:59:25.778Z,84.53
2023-04-23T06:01:54.318Z,84.79
2023-04-23T06:04:23.035Z,84.59
2023-04-23T06:06:52.998Z,84.54
2023-04-23T06:09:21.455Z,84.70
2023-04-23T06:11:50.739Z,85.28
2023-04-23T06:14:19.239Z,83.84
2023-04-23T06:16:47.740Z,83.13
2023-04-23T06:19:16.228Z,82.21
2023-04-23T06:21:44.725Z,82.57
2023-04-23T06:24:14.644Z,82.58
2023-04-23T06:26:43.119Z,82.53
2023-04-23T06:29:11.611Z,85.19
2023-04-23T06:31:41.674Z,85.62
2023-04-23T06:34:10.313Z,84.18
2023-04-23T06:36:39.007Z,83.17
2023-04-23T06:39:07.496Z,82.30
2023-04-23T06:41:37.430Z,85.05
2023-04-23T06:44:06.228Z,86.89
2023-04-23T06:46:35.010Z,85.26
2023-04-23T06:49:03.599Z,84.60
2023-04-23T06:51:32.545Z,85.53
2023-04-23T06:54:01.552Z,83.79
2023-04-23T06:56:30.035Z,80.92
2023-04-23T06:58:59.841Z,79.59
2023-04-23T07:01:28.553Z,80.16
2023-04-23T07:03:57.377Z,79.35
2023-04-23T07:06:26.826Z,78.64
2023-04-23T07:08:55.253Z,77.40
2023-04-23T07:11:23.746Z,77.55
2023-04-23T07:13:52.232Z,75.83
2023-04-23T07:16:23.227Z,77.02
2023-04-23T07:18:51.751Z,74.82
2023-04-23T07:21:20.234Z,74.87
2023-04-23T07:23:48.721Z,74.92
2023-04-23T07:26:18.011Z,72.93
2023-04-23T07:28:47.459Z,72.58
2023-04-23T07:31:16.190Z,73.70
2023-04-23T07:33:45.986Z,70.41
2023-04-23T07:36:14.726Z,70.90
2023-04-23T07:38:43.802Z,74.17
2023-04-23T07:41:12.262Z,73.41
2023-04-23T07:43:41.765Z,73.76
2023-04-23T07:46:10.670Z,71.47
2023-04-23T07:48:39.168Z,69.79
2023-04-23T07:51:09.535Z,68.41
2023-04-23T07:53:38.233Z,65.33
2023-04-23T07:56:07.254Z,62.94
2023-04-23T07:58:35.729Z,64.31
2023-04-23T08:01:04.259Z,62.78
2023-04-23T08:03:32.968Z,62.23
2023-04-23T08:06:01.546Z,62.95
2023-04-23T08:08:31.439Z,61.15
2023-04-23T08:11:00.118Z,60.09
2023-04-23T08:13:28.567Z,60.88
2023-04-23T08:15:57.059Z,62.35
2023-04-23T08:18:25.626Z,61.54
2023-04-23T08:20:57.557Z,62.47
2023-04-23T08:23:26.142Z,64.56
2023-04-23T08:25:56.035Z,66.54
2023-04-23T08:28:24.509Z,66.43
2023-04-23T08:30:52.954Z,65.73
2023-04-23T08:33:21.564Z,62.86
2023-04-23T08:35:50.249Z,64.64
2023-04-23T08:38:18.803Z,62.60
2023-04-23T08:40:47.650Z,60.21
2023-04-23T08:43:21.908Z,60.42
2023-04-23T08:45:51.047Z,57.23
2023-04-23T08:48:20.893Z,60.68
2023-04-23T08:50:50.139Z,54.42
2023-04-23T08:53:21.117Z,57.79
2023-04-23T08:55:52.177Z,59.59
2023-04-23T08:58:22.606Z,57.68
2023-04-23T09:00:51.409Z,59.50
2023-04-23T09:03:20.906Z,60.19
2023-04-23T09:05:51.002Z,61.06
2023-04-23T09:08:20.923Z,60.62
2023-04-23T09:10:50.652Z,61.40
2023-04-23T09:13:19.302Z,60.16
2023-04-23T09:15:49.203Z,60.30
2023-04-23T09:18:18.552Z,58.57
2023-04-23T09:20:47.445Z,62.79
2023-04-23T09:23:16.794Z,59.07
2023-04-23T09:25:45.472Z,58.92
2023-04-23T09:28:15.183Z,59.59
2023-04-23T09:30:45.989Z,58.29
2023-04-23T09:33:18.674Z,58.32
2023-04-23T09:35:48.162Z,61.54
2023-04-23T09:38:18.150Z,59.51
2023-04-23T09:40:46.636Z,59.36
2023-04-23T09:43:15.255Z,61.52
2023-04-23T09:45:50.634Z,61.80
2023-04-23T09:48:22.450Z,62.59
2023-04-23T09:50:50.920Z,62.28
2023-04-23T09:53:21.698Z,62.11
2023-04-23T09:55:50.153Z,57.95
2023-04-23T09:58:19.451Z,59.95
2023-04-23T10:00:48.125Z,60.39
2023-04-23T10:03:16.669Z,58.50
2023-04-23T10:06:00.194Z,58.71
2023-04-23T10:08:30.038Z,60.48
2023-04-23T10:11:13.710Z,61.03
2023-04-23T10:13:48.627Z,61.35
2023-04-23T10:16:23.116Z,59.17
2023-04-23T10:18:55.406Z,59.08
2023-04-23T10:21:46.320Z,59.34
2023-04-23T10:24:22.133Z,62.47
2023-04-23T10:26:54.063Z,59.84
2023-04-23T10:29:28.613Z,60.59
2023-04-23T10:31:59.099Z,61.35
2023-04-23T10:34:29.081Z,59.95
2023-04-23T10:37:00.405Z,57.70
2023-04-23T10:39:33.786Z,59.78
2023-04-23T10:42:05.792Z,58.86
2023-04-23T10:44:56.740Z,61.22
2023-04-23T10:47:24.493Z,58.91
2023-04-23T10:49:52.986Z,58.94
2023-04-23T10:52:25.798Z,61.34
2023-04-23T10:55:00.936Z,60.59
2023-04-23T10:57:29.690Z,59.26
2023-04-23T10:59:59.079Z,61.39
2023-04-23T11:02:29.390Z,59.01
2023-04-23T11:05:01.577Z,57.99
2023-04-23T11:07:34.740Z,59.92
2023-04-23T11:10:13.884Z,57.43
2023-04-23T11:12:43.040Z,58.63
2023-04-23T11:15:14.431Z,57.25
2023-04-23T11:18:03.215Z,57.39
2023-04-23T11:20:31.948Z,54.99
2023-04-23T11:23:01.875Z,56.55
2023-04-23T11:25:30.695Z,56.39
2023-04-23T11:27:59.991Z,57.36
2023-04-23T11:30:31.012Z,56.21
2023-04-23T11:33:01.429Z,53.08
2023-04-23T11:35:37.864Z,55.54
2023-04-23T11:38:11.401Z,52.91
2023-04-23T11:40:40.762Z,55.50
2023-04-23T11:43:09.806Z,54.80
2023-04-23T11:45:38.668Z,55.69
2023-04-23T11:48:08.573Z,55.00
2023-04-23T11:50:38.659Z,54.88
2023-04-23T11:53:08.018Z,53.31
2023-04-23T11:55:38.463Z,53.87
2023-04-23T11:58:06.910Z,54.72
2023-04-23T12:00:35.408Z,54.83
2023-04-23T12:03:06.193Z,52.78
2023-04-23T12:05:37.724Z,49.49
2023-04-23T12:08:10.970Z,50.77
2023-04-23T12:10:49.150Z,48.59
2023-04-23T12:13:18.714Z,50.97
2023-04-23T12:15:50.200Z,50.12
2023-04-23T12:18:19.918Z,51.37
2023-04-23T12:20:48.393Z,51.11
2023-04-23T12:23:17.137Z,48.96
2023-04-23T12:25:47.163Z,49.22
2023-04-23T12:28:15.615Z,48.56
2023-04-23T12:30:46.224Z,47.43
2023-04-23T12:33:15.115Z,47.64
2023-04-23T12:35:45.124Z,47.99
2023-04-23T12:38:24.906Z,50.46
2023-04-23T12:40:55.823Z,49.33
2023-04-23T12:43:24.529Z,51.43
2023-04-23T12:45:53.338Z,52.13
2023-04-23T12:48:22.019Z,52.29
2023-04-23T12:50:50.740Z,51.93
2023-04-23T12:53:20.205Z,48.66
2023-04-23T12:55:50.270Z,50.70
2023-04-23T12:58:20.379Z,50.44
2023-04-23T13:00:48.856Z,51.16
2023-04-23T13:03:19.687Z,51.69
2023-04-23T13:05:48.218Z,52.07
2023-04-23T13:08:16.675Z,50.72
2023-04-23T13:10:46.288Z,50.99
2023-04-23T13:13:16.102Z,51.03
2023-04-23T13:15:47.082Z,51.95
2023-04-23T13:18:15.825Z,52.39
2023-04-23T13:20:44.303Z,52.19
2023-04-23T13:23:13.410Z,55.40
2023-04-23T13:25:42.338Z,53.77
2023-04-23T13:28:10.869Z,53.18
2023-04-23T13:30:39.312Z,53.14
2023-04-23T13:33:09.299Z,53.09
2023-04-23T13:35:38.256Z,53.43
2023-04-23T13:38:07.061Z,51.79
2023-04-23T13:40:35.605Z,51.02
2023-04-23T13:43:04.073Z,52.63
2023-04-23T13:45:32.802Z,52.77
2023-04-23T13:48:02.575Z,53.05
2023-04-23T13:50:32.513Z,53.95
2023-04-23T13:53:01.006Z,54.49
2023-04-23T13:55:29.584Z,55.02
2023-04-23T13:57:58.940Z,55.86
2023-04-23T14:00:30.396Z,57.16
2023-04-23T14:02:59.012Z,55.82
2023-04-23T14:05:27.776Z,54.21
2023-04-23T14:07:57.724Z,54.41
2023-04-23T14:10:26.501Z,53.29
2023-04-23T14:12:55.478Z,55.05
2023-04-23T14:15:24.243Z,54.38
2023-04-23T14:17:53.165Z,54.81
2023-04-23T14:20:22.419Z,54.72
2023-04-23T14:22:56.706Z,54.43
2023-04-23T14:25:32.523Z,55.78
2023-04-23T14:28:11.207Z,55.05
2023-04-23T14:30:42.569Z,54.43
2023-04-23T14:33:11.262Z,53.51
2023-04-23T14:35:43.547Z,53.71
2023-04-23T14:38:12.270Z,55.14
2023-04-23T14:40:43.018Z,55.84
2023-04-23T14:43:15.451Z,55.58
2023-04-23T14:45:44.598Z,60.51
2023-04-23T14:48:13.388Z,66.37
2023-04-23T14:50:41.899Z,70.34
2023-04-23T14:53:10.816Z,71.52
2023-04-23T14:55:40.843Z,66.16
2023-04-23T14:58:10.833Z,72.32
2023-04-23T15:00:39.786Z,72.57
2023-04-23T15:03:11.243Z,74.55
2023-04-23T15:05:42.003Z,68.84
2023-04-23T15:08:10.723Z,67.54
2023-04-23T15:10:39.213Z,67.35
2023-04-23T15:13:39.615Z,69.21
2023-04-23T15:16:29.019Z,67.61
2023-04-23T15:19:10.093Z,70.83
2023-04-23T15:21:39.661Z,73.23
2023-04-23T15:24:08.574Z,74.08
2023-04-23T15:26:37.811Z,71.31
2023-04-23T15:29:09.240Z,73.47
2023-04-23T15:31:37.989Z,73.07
2023-04-23T15:34:09.189Z,73.98
2023-04-23T15:36:38.535Z,74.97
2023-04-23T15:39:07.962Z,70.02
2023-04-23T15:41:40.317Z,73.60
2023-04-23T15:44:12.890Z,68.90
2023-04-23T15:46:41.373Z,69.25
2023-04-23T15:49:10.083Z,69.16
2023-04-23T15:51:38.888Z,66.36
2023-04-23T15:54:08.878Z,68.60
2023-04-23T15:56:37.899Z,68.54
2023-04-23T15:59:07.793Z,67.76
2023-04-23T16:01:37.954Z,67.08
2023-04-23T16:04:10.997Z,66.88
2023-04-23T16:06:40.121Z,65.50
2023-04-23T16:09:08.950Z,67.62
2023-04-23T16:11:38.000Z,68.17
2023-04-23T16:14:09.516Z,68.84
2023-04-23T16:16:39.906Z,66.15
2023-04-23T16:19:08.666Z,65.74
2023-04-23T16:21:37.202Z,67.92
2023-04-23T16:24:07.795Z,66.82
2023-04-23T16:26:37.682Z,67.41
2023-04-23T16:29:21.581Z,65.11
2023-04-23T16:31:52.749Z,64.14
2023-04-23T16:34:21.242Z,65.86
2023-04-23T16:36:49.770Z,65.01
2023-04-23T16:39:18.250Z,63.43
2023-04-23T16:41:47.167Z,66.04
2023-04-23T16:44:15.593Z,63.91
2023-04-23T16:46:44.217Z,65.69
2023-04-23T16:49:14.485Z,65.17
2023-04-23T16:51:42.955Z,66.72
2023-04-23T16:54:11.460Z,65.20
2023-04-23T16:56:39.967Z,66.12
2023-04-23T16:59:08.528Z,62.52
2023-04-23T17:01:37.252Z,62.86
2023-04-23T17:04:05.934Z,63.10
2023-04-23T17:06:36.189Z,63.24
2023-04-23T17:09:06.026Z,63.52
2023-04-23T17:11:34.831Z,63.06
2023-04-23T17:14:03.290Z,63.91
2023-04-23T17:16:32.080Z,65.06
2023-04-23T17:19:01.835Z,65.31
2023-04-23T17:21:30.435Z,65.25
2023-04-23T17:24:00.298Z,68.33
2023-04-23T17:26:29.001Z,67.73
2023-04-23T17:28:57.560Z,68.82
2023-04-23T17:31:26.150Z,66.02
2023-04-23T17:33:56.215Z,69.42
2023-04-23T17:36:24.837Z,67.24
2023-04-23T17:38:53.524Z,67.33
2023-04-23T17:41:23.899Z,66.27
2023-04-23T17:43:52.431Z,66.59
2023-04-23T17:46:21.069Z,65.32
2023-04-23T17:48:49.654Z,66.18
2023-04-23T17:51:18.426Z,66.81
2023-04-23T17:53:48.677Z,68.10
2023-04-23T17:56:17.458Z,66.54
2023-04-23T17:58:47.313Z,67.29
2023-04-23T18:01:17.662Z,67.26
2023-04-23T18:03:48.286Z,65.29
2023-04-23T18:06:16.933Z,66.52
2023-04-23T18:08:45.462Z,68.03
2023-04-23T18:11:13.995Z,68.45
2023-04-23T18:13:42.505Z,71.63
2023-04-23T18:16:12.595Z,74.31
2023-04-23T18:18:41.112Z,75.47
2023-04-23T18:21:10.186Z,75.83
2023-04-23T18:23:39.763Z,77.24
2023-04-23T18:26:08.201Z,78.47
2023-04-23T18:28:37.505Z,78.88
2023-04-23T18:31:06.149Z,79.25
2023-04-23T18:33:44.889Z,79.94
2023-04-23T18:36:28.045Z,79.55
2023-04-23T18:38:56.681Z,80.66
2023-04-23T18:41:25.186Z,81.55
2023-04-23T18:43:53.667Z,81.05
2023-04-23T18:46:23.342Z,80.56
2023-04-23T18:49:01.687Z,80.56
2023-04-23T18:51:38.641Z,82.02
2023-04-23T18:54:07.483Z,81.65
2023-04-23T18:56:36.221Z,81.07
2023-04-23T18:59:04.682Z,81.72
2023-04-23T19:01:33.220Z,82.33
2023-04-23T19:04:03.907Z,80.43
2023-04-23T19:06:32.472Z,80.15
2023-04-23T19:09:01.466Z,80.36
2023-04-23T19:11:34.484Z,80.63
2023-04-23T19:14:03.089Z,81.07
2023-04-23T19:16:31.706Z,80.79
2023-04-23T19:19:00.312Z,80.21
2023-04-23T19:21:30.374Z,81.12
2023-04-23T19:23:59.435Z,81.09
2023-04-23T19:26:28.004Z,80.68
2023-04-23T19:28:56.987Z,81.04
2023-04-23T19:31:25.561Z,80.31
2023-04-23T19:33:54.067Z,81.02
2023-04-23T19:36:22.726Z,79.73
2023-04-23T19:38:52.562Z,80.39
2023-04-23T19:41:21.053Z,80.48
2023-04-23T19:43:49.637Z,79.90
2023-04-23T19:46:18.146Z,80.22
2023-04-23T19:48:46.930Z,80.79
2023-04-23T19:51:15.408Z,80.71
2023-04-23T19:53:43.890Z,81.01
2023-04-23T19:56:15.246Z,80.33
2023-04-23T19:58:43.697Z,81.08
2023-04-23T20:01:13.169Z,80.74
2023-04-23T20:03:43.176Z,79.58
2023-04-23T20:06:12.625Z,79.50
2023-04-23T20:09:02.718Z,79.91
2023-04-23T20:11:33.311Z,79.49
2023-04-23T20:14:01.966Z,80.71
2023-04-23T20:16:30.803Z,79.28
2023-04-23T20:18:59.849Z,78.30
2023-04-23T20:21:28.332Z,79.75
2023-04-23T20:23:57.024Z,79.63
2023-04-23T20:26:25.574Z,80.31
2023-04-23T20:28:55.438Z,80.90
2023-04-23T20:31:23.897Z,78.88
2023-04-23T20:33:52.344Z,79.26
2023-04-23T20:36:21.180Z,79.00
2023-04-23T20:38:49.724Z,79.71
2023-04-23T20:41:18.759Z,78.89
2023-04-23T20:43:47.257Z,78.80
2023-04-23T20:46:17.224Z,79.16
2023-04-23T20:48:45.715Z,79.84
2023-04-23T20:51:15.807Z,78.66
2023-04-23T20:53:44.319Z,77.58
2023-04-23T20:56:12.821Z,77.87
2023-04-23T20:58:41.452Z,77.30
2023-04-23T21:01:11.726Z,78.11
2023-04-23T21:03:42.449Z,78.25
2023-04-23T21:06:12.277Z,78.54
2023-04-23T21:08:42.684Z,77.79
2023-04-23T21:11:13.985Z,78.02
2023-04-23T21:13:42.529Z,78.35
2023-04-23T21:16:11.627Z,78.22
2023-04-23T21:18:43.864Z,79.90
2023-04-23T21:21:12.391Z,78.94
2023-04-23T21:23:40.894Z,78.84
2023-04-23T21:26:09.587Z,78.71
2023-04-23T21:28:38.547Z,79.54
2023-04-23T21:31:15.544Z,79.27
2023-04-23T21:33:45.699Z,79.24
2023-04-23T21:36:14.219Z,79.29
2023-04-23T21:38:42.684Z,79.72
2023-04-23T21:41:11.163Z,78.43
2023-04-23T21:43:40.595Z,80.41
2023-04-23T21:46:09.073Z,80.23
2023-04-23T21:48:37.552Z,80.45
2023-04-23T21:51:08.133Z,81.06
2023-04-23T21:53:36.588Z,79.84
2023-04-23T21:56:05.814Z,78.95
2023-04-23T21:58:35.266Z,79.48
2023-04-23T22:01:04.067Z,80.96
2023-04-23T22:03:38.483Z,80.59
2023-04-23T22:06:10.773Z,78.50
2023-04-23T22:08:40.718Z,78.11
2023-04-23T22:11:10.018Z,77.73
2023-04-23T22:13:38.578Z,77.35
2023-04-23T22:16:20.440Z,77.71
2023-04-23T22:18:55.965Z,76.63
2023-04-23T22:21:25.962Z,77.02
2023-04-23T22:23:54.496Z,76.76
2023-04-23T22:26:23.265Z,77.38
2023-04-23T22:28:51.830Z,76.81
2023-04-23T22:31:20.308Z,77.26
2023-04-23T22:33:48.848Z,76.80
2023-04-23T22:36:17.641Z,76.42
2023-04-23T22:38:47.532Z,76.44
2023-04-23T22:41:16.001Z,76.15
2023-04-23T22:43:44.448Z,76.68
2023-04-23T22:46:12.955Z,76.41
2023-04-23T22:48:44.149Z,76.44
2023-04-23T22:51:12.652Z,76.39
2023-04-23T22:53:41.301Z,76.61
2023-04-23T22:56:11.137Z,75.92
2023-04-23T22:58:39.851Z,77.02
2023-04-23T23:01:08.357Z,76.67
2023-04-23T23:03:36.996Z,75.91
2023-04-23T23:06:06.234Z,77.51
2023-04-23T23:08:34.993Z,76.88
2023-04-23T23:11:03.469Z,77.33
2023-04-23T23:13:33.350Z,76.18
2023-04-23T23:16:05.769Z,76.15
2023-04-23T23:18:34.363Z,76.88
2023-04-23T23:21:03.221Z,77.26
2023-04-23T23:23:32.000Z,77.34
2023-04-23T23:26:00.541Z,78.06
2023-04-23T23:28:29.441Z,77.66
2023-04-23T23:30:59.578Z,78.72
2023-04-23T23:33:28.337Z,78.02
2023-04-23T23:35:57.443Z,77.25
2023-04-23T23:38:26.153Z,77.26
2023-04-23T23:40:54.633Z,77.53
2023-04-23T23:43:23.139Z,78.30
2023-04-23T23:45:51.675Z,78.57
2023-04-23T23:48:21.574Z,78.28
2023-04-23T23:50:50.061Z,78.50
2023-04-23T23:53:18.606Z,78.67
2023-04-23T23:55:47.375Z,78.95
2023-04-23T23:58:15.856Z,78.33
